sensor_id;sensor_type;location;lat;lon;timestamp;P1;durP1;ratioP1;P2;durP2;ratioP2
38238;SDS011;24035;48.900;9.188;2023-11-19T00:00:35;2.00;;;0.50;;
38238;SDS011;24035;48.900;9.188;2023-11-19T00:03:01;1.33;;;0.60;;
38238;SDS011;24035;48.900;9.188;2023-11-19T00:05:27;1.65;;;0.50;;
38238;SDS011;24035;48.900;9.188;2023-11-19T00:07:54;1.45;;;0.52;;
38238;SDS011;24035;48.900;9.188;2023-11-19T00:10:20;1.85;;;0.50;;
38238;SDS011;24035;48.900;9.188;2023-11-19T00:12:46;1.88;;;0.73;;
38238;SDS011;24035;48.900;9.188;2023-11-19T00:15:13;2.47;;;0.80;;
38238;SDS011;24035;48.900;9.188;2023-11-19T00:17:44;1.30;;;0.45;;
38238;SDS011;24035;48.900;9.188;2023-11-19T00:20:13;1.52;;;0.55;;
38238;SDS011;24035;48.900;9.188;2023-11-19T00:22:41;1.75;;;0.68;;
38238;SDS011;24035;48.900;9.188;2023-11-19T00:25:08;1.42;;;0.40;;
38238;SDS011;24035;48.900;9.188;2023-11-19T00:27:34;0.63;;;0.25;;
38238;SDS011;24035;48.900;9.188;2023-11-19T00:30:04;0.88;;;0.38;;
38238;SDS011;24035;48.900;9.188;2023-11-19T00:32:34;0.68;;;0.30;;
38238;SDS011;24035;48.900;9.188;2023-11-19T00:35:01;2.53;;;0.50;;
38238;SDS011;24035;48.900;9.188;2023-11-19T00:37:28;1.20;;;0.30;;
38238;SDS011;24035;48.900;9.188;2023-11-19T00:39:54;0.80;;;0.20;;
38238;SDS011;24035;48.900;9.188;2023-11-19T00:42:22;1.00;;;0.30;;
38238;SDS011;24035;48.900;9.188;2023-11-19T00:44:49;1.45;;;0.38;;
38238;SDS011;24035;48.900;9.188;2023-11-19T00:47:15;1.30;;;0.22;;
38238;SDS011;24035;48.900;9.188;2023-11-19T00:49:41;0.77;;;0.20;;
38238;SDS011;24035;48.900;9.188;2023-11-19T00:52:08;0.50;;;0.10;;
38238;SDS011;24035;48.900;9.188;2023-11-19T00:54:33;1.17;;;0.30;;
38238;SDS011;24035;48.900;9.188;2023-11-19T00:56:59;0.40;;;0.10;;
38238;SDS011;24035;48.900;9.188;2023-11-19T00:59:26;1.02;;;0.20;;
38238;SDS011;24035;48.900;9.188;2023-11-19T01:01:53;0.10;;;0.08;;
38238;SDS011;24035;48.900;9.188;2023-11-19T01:04:20;0.43;;;0.15;;
38238;SDS011;24035;48.900;9.188;2023-11-19T01:06:45;0.73;;;0.30;;
38238;SDS011;24035;48.900;9.188;2023-11-19T01:09:11;1.92;;;0.65;;
38238;SDS011;24035;48.900;9.188;2023-11-19T01:11:37;0.60;;;0.20;;
38238;SDS011;24035;48.900;9.188;2023-11-19T01:14:02;0.30;;;0.10;;
38238;SDS011;24035;48.900;9.188;2023-11-19T01:16:28;0.57;;;0.20;;
38238;SDS011;24035;48.900;9.188;2023-11-19T01:18:54;0.28;;;0.10;;
38238;SDS011;24035;48.900;9.188;2023-11-19T01:21:21;1.25;;;0.35;;
38238;SDS011;24035;48.900;9.188;2023-11-19T01:23:47;0.88;;;0.13;;
38238;SDS011;24035;48.900;9.188;2023-11-19T01:26:12;0.45;;;0.10;;
38238;SDS011;24035;48.900;9.188;2023-11-19T01:28:39;0.38;;;0.10;;
38238;SDS011;24035;48.900;9.188;2023-11-19T01:31:13;2.38;;;0.22;;
38238;SDS011;24035;48.900;9.188;2023-11-19T01:33:40;0.30;;;0.10;;
38238;SDS011;24035;48.900;9.188;2023-11-19T01:36:07;0.32;;;0.10;;
38238;SDS011;24035;48.900;9.188;2023-11-19T01:38:33;0.20;;;0.10;;
38238;SDS011;24035;48.900;9.188;2023-11-19T01:41:00;0.30;;;0.10;;
38238;SDS011;24035;48.900;9.188;2023-11-19T01:43:37;0.60;;;0.10;;
38238;SDS011;24035;48.900;9.188;2023-11-19T01:46:06;0.17;;;0.00;;
38238;SDS011;24035;48.900;9.188;2023-11-19T01:48:32;0.45;;;0.10;;
38238;SDS011;24035;48.900;9.188;2023-11-19T01:51:01;0.20;;;0.05;;
38238;SDS011;24035;48.900;9.188;2023-11-19T01:53:29;0.85;;;0.22;;
38238;SDS011;24035;48.900;9.188;2023-11-19T01:55:55;0.32;;;0.17;;
38238;SDS011;24035;48.900;9.188;2023-11-19T01:58:21;0.28;;;0.10;;
38238;SDS011;24035;48.900;9.188;2023-11-19T02:00:48;0.52;;;0.15;;
38238;SDS011;24035;48.900;9.188;2023-11-19T02:03:14;0.40;;;0.10;;
38238;SDS011;24035;48.900;9.188;2023-11-19T02:05:40;1.92;;;0.15;;
38238;SDS011;24035;48.900;9.188;2023-11-19T02:08:09;0.35;;;0.10;;
38238;SDS011;24035;48.900;9.188;2023-11-19T02:10:34;0.00;;;0.00;;
38238;SDS011;24035;48.900;9.188;2023-11-19T02:13:01;0.28;;;0.10;;
38238;SDS011;24035;48.900;9.188;2023-11-19T02:15:27;0.35;;;0.10;;
38238;SDS011;24035;48.900;9.188;2023-11-19T02:17:53;0.08;;;0.00;;
38238;SDS011;24035;48.900;9.188;2023-11-19T02:20:19;0.43;;;0.10;;
38238;SDS011;24035;48.900;9.188;2023-11-19T02:22:49;1.85;;;0.17;;
38238;SDS011;24035;48.900;9.188;2023-11-19T02:25:25;0.00;;;0.00;;
38238;SDS011;24035;48.900;9.188;2023-11-19T02:28:01;0.03;;;0.00;;
38238;SDS011;24035;48.900;9.188;2023-11-19T02:30:28;0.10;;;0.00;;
38238;SDS011;24035;48.900;9.188;2023-11-19T02:32:58;0.05;;;0.03;;
38238;SDS011;24035;48.900;9.188;2023-11-19T02:35:26;0.47;;;0.00;;
38238;SDS011;24035;48.900;9.188;2023-11-19T02:37:57;0.13;;;0.00;;
38238;SDS011;24035;48.900;9.188;2023-11-19T02:40:24;0.00;;;0.00;;
38238;SDS011;24035;48.900;9.188;2023-11-19T02:42:51;0.55;;;0.10;;
38238;SDS011;24035;48.900;9.188;2023-11-19T02:45:17;0.10;;;0.00;;
38238;SDS011;24035;48.900;9.188;2023-11-19T02:47:43;0.10;;;0.00;;
38238;SDS011;24035;48.900;9.188;2023-11-19T02:50:12;0.43;;;0.20;;
38238;SDS011;24035;48.900;9.188;2023-11-19T02:52:41;0.75;;;0.10;;
38238;SDS011;24035;48.900;9.188;2023-11-19T02:55:08;0.63;;;0.10;;
38238;SDS011;24035;48.900;9.188;2023-11-19T02:57:38;0.65;;;0.20;;
38238;SDS011;24035;48.900;9.188;2023-11-19T03:02:57;1.50;;;0.38;;
38238;SDS011;24035;48.900;9.188;2023-11-19T03:05:35;1.17;;;0.25;;
38238;SDS011;24035;48.900;9.188;2023-11-19T03:08:00;1.35;;;0.40;;
38238;SDS011;24035;48.900;9.188;2023-11-19T03:10:26;0.40;;;0.15;;
38238;SDS011;24035;48.900;9.188;2023-11-19T03:12:52;1.25;;;0.20;;
38238;SDS011;24035;48.900;9.188;2023-11-19T03:18:42;1.42;;;0.50;;
38238;SDS011;24035;48.900;9.188;2023-11-19T03:21:08;2.78;;;0.52;;
38238;SDS011;24035;48.900;9.188;2023-11-19T03:23:34;1.95;;;0.65;;
38238;SDS011;24035;48.900;9.188;2023-11-19T03:26:00;1.85;;;0.68;;
38238;SDS011;24035;48.900;9.188;2023-11-19T03:28:30;2.85;;;0.68;;
38238;SDS011;24035;48.900;9.188;2023-11-19T03:30:56;1.67;;;0.57;;
38238;SDS011;24035;48.900;9.188;2023-11-19T03:33:22;2.75;;;0.85;;
38238;SDS011;24035;48.900;9.188;2023-11-19T03:35:48;1.80;;;0.70;;
38238;SDS011;24035;48.900;9.188;2023-11-19T03:38:13;1.83;;;0.68;;
38238;SDS011;24035;48.900;9.188;2023-11-19T03:40:39;2.65;;;0.90;;
38238;SDS011;24035;48.900;9.188;2023-11-19T03:43:06;2.00;;;0.73;;
38238;SDS011;24035;48.900;9.188;2023-11-19T03:45:32;1.52;;;0.68;;
38238;SDS011;24035;48.900;9.188;2023-11-19T03:47:58;2.28;;;0.95;;
38238;SDS011;24035;48.900;9.188;2023-11-19T03:50:23;2.92;;;1.30;;
38238;SDS011;24035;48.900;9.188;2023-11-19T03:52:49;2.13;;;0.70;;
38238;SDS011;24035;48.900;9.188;2023-11-19T03:55:15;1.73;;;0.60;;
38238;SDS011;24035;48.900;9.188;2023-11-19T03:57:40;3.72;;;1.10;;
38238;SDS011;24035;48.900;9.188;2023-11-19T04:00:06;1.35;;;0.47;;
38238;SDS011;24035;48.900;9.188;2023-11-19T04:02:38;2.45;;;0.70;;
38238;SDS011;24035;48.900;9.188;2023-11-19T04:05:04;1.20;;;0.57;;
38238;SDS011;24035;48.900;9.188;2023-11-19T04:07:32;1.30;;;0.75;;
38238;SDS011;24035;48.900;9.188;2023-11-19T04:09:58;1.67;;;0.50;;
38238;SDS011;24035;48.900;9.188;2023-11-19T04:12:24;1.92;;;0.60;;
38238;SDS011;24035;48.900;9.188;2023-11-19T04:14:50;2.20;;;0.70;;
38238;SDS011;24035;48.900;9.188;2023-11-19T04:17:15;1.25;;;0.40;;
38238;SDS011;24035;48.900;9.188;2023-11-19T04:19:41;1.80;;;0.40;;
38238;SDS011;24035;48.900;9.188;2023-11-19T04:22:07;1.08;;;0.40;;
38238;SDS011;24035;48.900;9.188;2023-11-19T04:24:34;1.50;;;0.43;;
38238;SDS011;24035;48.900;9.188;2023-11-19T04:27:00;0.65;;;0.22;;
38238;SDS011;24035;48.900;9.188;2023-11-19T04:29:26;0.60;;;0.40;;
38238;SDS011;24035;48.900;9.188;2023-11-19T04:31:51;1.38;;;0.47;;
38238;SDS011;24035;48.900;9.188;2023-11-19T04:34:18;1.55;;;0.50;;
38238;SDS011;24035;48.900;9.188;2023-11-19T04:36:44;1.20;;;0.40;;
38238;SDS011;24035;48.900;9.188;2023-11-19T04:39:10;1.33;;;0.43;;
38238;SDS011;24035;48.900;9.188;2023-11-19T04:41:46;1.75;;;0.52;;
38238;SDS011;24035;48.900;9.188;2023-11-19T04:44:16;1.50;;;0.50;;
38238;SDS011;24035;48.900;9.188;2023-11-19T04:46:42;1.60;;;0.40;;
38238;SDS011;24035;48.900;9.188;2023-11-19T04:49:09;1.05;;;0.30;;
38238;SDS011;24035;48.900;9.188;2023-11-19T04:51:41;0.50;;;0.20;;
38238;SDS011;24035;48.900;9.188;2023-11-19T04:54:08;1.17;;;0.30;;
38238;SDS011;24035;48.900;9.188;2023-11-19T04:56:38;1.60;;;0.50;;
38238;SDS011;24035;48.900;9.188;2023-11-19T04:59:05;1.02;;;0.30;;
38238;SDS011;24035;48.900;9.188;2023-11-19T05:01:34;2.05;;;0.55;;
38238;SDS011;24035;48.900;9.188;2023-11-19T05:04:00;0.50;;;0.20;;
38238;SDS011;24035;48.900;9.188;2023-11-19T05:06:27;0.95;;;0.38;;
38238;SDS011;24035;48.900;9.188;2023-11-19T05:08:55;0.25;;;0.05;;
38238;SDS011;24035;48.900;9.188;2023-11-19T05:11:21;0.95;;;0.40;;
38238;SDS011;24035;48.900;9.188;2023-11-19T05:13:49;0.52;;;0.20;;
38238;SDS011;24035;48.900;9.188;2023-11-19T05:16:15;0.90;;;0.20;;
38238;SDS011;24035;48.900;9.188;2023-11-19T05:18:42;0.98;;;0.30;;
38238;SDS011;24035;48.900;9.188;2023-11-19T05:21:08;2.60;;;0.70;;
38238;SDS011;24035;48.900;9.188;2023-11-19T05:23:35;1.40;;;0.45;;
38238;SDS011;24035;48.900;9.188;2023-11-19T05:26:03;1.38;;;0.45;;
38238;SDS011;24035;48.900;9.188;2023-11-19T05:28:29;1.98;;;0.35;;
38238;SDS011;24035;48.900;9.188;2023-11-19T05:30:55;1.08;;;0.22;;
38238;SDS011;24035;48.900;9.188;2023-11-19T05:33:21;1.08;;;0.70;;
38238;SDS011;24035;48.900;9.188;2023-11-19T05:35:47;0.15;;;0.10;;
38238;SDS011;24035;48.900;9.188;2023-11-19T05:38:13;1.63;;;0.00;;
38238;SDS011;24035;48.900;9.188;2023-11-19T05:40:39;0.63;;;0.10;;
38238;SDS011;24035;48.900;9.188;2023-11-19T05:43:06;0.05;;;0.00;;
38238;SDS011;24035;48.900;9.188;2023-11-19T05:45:32;0.20;;;0.05;;
38238;SDS011;24035;48.900;9.188;2023-11-19T05:47:58;0.00;;;0.00;;
38238;SDS011;24035;48.900;9.188;2023-11-19T05:50:25;0.22;;;0.10;;
38238;SDS011;24035;48.900;9.188;2023-11-19T05:52:51;0.50;;;0.10;;
38238;SDS011;24035;48.900;9.188;2023-11-19T05:55:18;0.00;;;0.00;;
38238;SDS011;24035;48.900;9.188;2023-11-19T05:57:44;0.55;;;0.10;;
38238;SDS011;24035;48.900;9.188;2023-11-19T06:00:10;0.38;;;0.10;;
38238;SDS011;24035;48.900;9.188;2023-11-19T06:02:38;1.92;;;0.50;;
38238;SDS011;24035;48.900;9.188;2023-11-19T06:05:04;1.42;;;0.43;;
38238;SDS011;24035;48.900;9.188;2023-11-19T06:07:31;0.47;;;0.20;;
38238;SDS011;24035;48.900;9.188;2023-11-19T06:09:58;0.50;;;0.10;;
38238;SDS011;24035;48.900;9.188;2023-11-19T06:12:23;0.13;;;0.08;;
38238;SDS011;24035;48.900;9.188;2023-11-19T06:14:49;1.83;;;0.20;;
38238;SDS011;24035;48.900;9.188;2023-11-19T06:17:15;2.28;;;0.10;;
38238;SDS011;24035;48.900;9.188;2023-11-19T06:19:40;0.30;;;0.10;;
38238;SDS011;24035;48.900;9.188;2023-11-19T06:22:06;0.32;;;0.08;;
38238;SDS011;24035;48.900;9.188;2023-11-19T06:24:32;0.05;;;0.00;;
38238;SDS011;24035;48.900;9.188;2023-11-19T06:26:58;0.22;;;0.03;;
38238;SDS011;24035;48.900;9.188;2023-11-19T06:29:24;1.27;;;0.10;;
38238;SDS011;24035;48.900;9.188;2023-11-19T06:31:50;0.38;;;0.10;;
38238;SDS011;24035;48.900;9.188;2023-11-19T06:34:16;0.52;;;0.20;;
38238;SDS011;24035;48.900;9.188;2023-11-19T06:36:42;0.10;;;0.05;;
38238;SDS011;24035;48.900;9.188;2023-11-19T06:39:10;0.32;;;0.13;;
38238;SDS011;24035;48.900;9.188;2023-11-19T06:41:36;1.35;;;0.28;;
38238;SDS011;24035;48.900;9.188;2023-11-19T06:44:05;0.40;;;0.10;;
38238;SDS011;24035;48.900;9.188;2023-11-19T06:46:31;0.10;;;0.00;;
38238;SDS011;24035;48.900;9.188;2023-11-19T06:48:57;0.38;;;0.08;;
38238;SDS011;24035;48.900;9.188;2023-11-19T06:51:23;0.10;;;0.00;;
38238;SDS011;24035;48.900;9.188;2023-11-19T06:53:49;0.00;;;0.00;;
38238;SDS011;24035;48.900;9.188;2023-11-19T06:56:21;1.30;;;0.40;;
38238;SDS011;24035;48.900;9.188;2023-11-19T06:58:49;0.95;;;0.10;;
38238;SDS011;24035;48.900;9.188;2023-11-19T07:01:15;0.20;;;0.00;;
38238;SDS011;24035;48.900;9.188;2023-11-19T07:03:44;1.05;;;0.28;;
38238;SDS011;24035;48.900;9.188;2023-11-19T07:06:13;2.53;;;0.50;;
38238;SDS011;24035;48.900;9.188;2023-11-19T07:08:40;0.55;;;0.20;;
38238;SDS011;24035;48.900;9.188;2023-11-19T07:11:07;0.30;;;0.20;;
38238;SDS011;24035;48.900;9.188;2023-11-19T07:13:35;0.10;;;0.00;;
38238;SDS011;24035;48.900;9.188;2023-11-19T07:16:02;0.25;;;0.05;;
38238;SDS011;24035;48.900;9.188;2023-11-19T07:18:28;0.15;;;0.00;;
38238;SDS011;24035;48.900;9.188;2023-11-19T07:20:54;0.57;;;0.20;;
38238;SDS011;24035;48.900;9.188;2023-11-19T07:23:21;0.43;;;0.10;;
38238;SDS011;24035;48.900;9.188;2023-11-19T07:25:47;0.77;;;0.10;;
38238;SDS011;24035;48.900;9.188;2023-11-19T07:28:15;0.40;;;0.00;;
38238;SDS011;24035;48.900;9.188;2023-11-19T07:30:41;0.20;;;0.10;;
38238;SDS011;24035;48.900;9.188;2023-11-19T07:33:07;1.35;;;0.13;;
38238;SDS011;24035;48.900;9.188;2023-11-19T07:35:33;0.43;;;0.10;;
38238;SDS011;24035;48.900;9.188;2023-11-19T07:37:59;0.00;;;0.00;;
38238;SDS011;24035;48.900;9.188;2023-11-19T07:40:25;0.22;;;0.03;;
38238;SDS011;24035;48.900;9.188;2023-11-19T07:42:51;0.30;;;0.05;;
38238;SDS011;24035;48.900;9.188;2023-11-19T07:45:17;0.63;;;0.20;;
38238;SDS011;24035;48.900;9.188;2023-11-19T07:47:43;1.75;;;0.60;;
38238;SDS011;24035;48.900;9.188;2023-11-19T07:50:10;1.63;;;0.43;;
38238;SDS011;24035;48.900;9.188;2023-11-19T07:52:38;2.15;;;0.70;;
38238;SDS011;24035;48.900;9.188;2023-11-19T07:55:04;1.45;;;0.30;;
38238;SDS011;24035;48.900;9.188;2023-11-19T07:57:30;1.33;;;0.40;;
38238;SDS011;24035;48.900;9.188;2023-11-19T07:59:56;1.00;;;0.30;;
38238;SDS011;24035;48.900;9.188;2023-11-19T08:02:22;1.88;;;0.20;;
38238;SDS011;24035;48.900;9.188;2023-11-19T08:04:49;1.23;;;0.20;;
38238;SDS011;24035;48.900;9.188;2023-11-19T08:07:17;0.43;;;0.10;;
38238;SDS011;24035;48.900;9.188;2023-11-19T08:09:44;1.33;;;0.17;;
38238;SDS011;24035;48.900;9.188;2023-11-19T08:12:10;0.20;;;0.08;;
38238;SDS011;24035;48.900;9.188;2023-11-19T08:14:36;0.38;;;0.20;;
38238;SDS011;24035;48.900;9.188;2023-11-19T08:17:02;0.73;;;0.20;;
38238;SDS011;24035;48.900;9.188;2023-11-19T08:19:28;2.05;;;0.70;;
38238;SDS011;24035;48.900;9.188;2023-11-19T08:21:54;1.75;;;0.82;;
38238;SDS011;24035;48.900;9.188;2023-11-19T08:24:19;1.48;;;0.25;;
38238;SDS011;24035;48.900;9.188;2023-11-19T08:26:45;0.00;;;0.00;;
38238;SDS011;24035;48.900;9.188;2023-11-19T08:29:11;0.10;;;0.10;;
38238;SDS011;24035;48.900;9.188;2023-11-19T08:31:36;2.63;;;0.10;;
38238;SDS011;24035;48.900;9.188;2023-11-19T08:34:02;0.17;;;0.10;;
38238;SDS011;24035;48.900;9.188;2023-11-19T08:36:28;0.60;;;0.10;;
38238;SDS011;24035;48.900;9.188;2023-11-19T08:38:54;0.00;;;0.00;;
38238;SDS011;24035;48.900;9.188;2023-11-19T08:41:20;0.28;;;0.10;;
38238;SDS011;24035;48.900;9.188;2023-11-19T08:43:47;1.38;;;0.30;;
38238;SDS011;24035;48.900;9.188;2023-11-19T08:46:12;0.50;;;0.10;;
38238;SDS011;24035;48.900;9.188;2023-11-19T08:48:38;0.93;;;0.20;;
38238;SDS011;24035;48.900;9.188;2023-11-19T08:51:04;0.77;;;0.32;;
38238;SDS011;24035;48.900;9.188;2023-11-19T08:53:30;0.47;;;0.20;;
38238;SDS011;24035;48.900;9.188;2023-11-19T08:55:56;0.55;;;0.10;;
38238;SDS011;24035;48.900;9.188;2023-11-19T08:58:22;0.82;;;0.20;;
38238;SDS011;24035;48.900;9.188;2023-11-19T09:00:50;0.90;;;0.30;;
38238;SDS011;24035;48.900;9.188;2023-11-19T09:03:16;1.08;;;0.30;;
38238;SDS011;24035;48.900;9.188;2023-11-19T09:05:41;0.85;;;0.30;;
38238;SDS011;24035;48.900;9.188;2023-11-19T09:08:07;0.47;;;0.20;;
38238;SDS011;24035;48.900;9.188;2023-11-19T09:10:33;0.75;;;0.20;;
38238;SDS011;24035;48.900;9.188;2023-11-19T09:12:59;0.77;;;0.17;;
38238;SDS011;24035;48.900;9.188;2023-11-19T09:15:25;0.95;;;0.20;;
38238;SDS011;24035;48.900;9.188;2023-11-19T09:17:50;3.72;;;0.60;;
38238;SDS011;24035;48.900;9.188;2023-11-19T09:20:16;0.20;;;0.10;;
38238;SDS011;24035;48.900;9.188;2023-11-19T09:22:42;0.65;;;0.17;;
38238;SDS011;24035;48.900;9.188;2023-11-19T09:25:08;1.40;;;0.43;;
38238;SDS011;24035;48.900;9.188;2023-11-19T09:27:34;0.45;;;0.20;;
38238;SDS011;24035;48.900;9.188;2023-11-19T09:30:00;0.40;;;0.10;;
38238;SDS011;24035;48.900;9.188;2023-11-19T09:32:26;0.95;;;0.30;;
38238;SDS011;24035;48.900;9.188;2023-11-19T09:34:52;1.33;;;0.38;;
38238;SDS011;24035;48.900;9.188;2023-11-19T09:37:18;1.50;;;0.57;;
38238;SDS011;24035;48.900;9.188;2023-11-19T09:39:44;0.80;;;0.30;;
38238;SDS011;24035;48.900;9.188;2023-11-19T09:42:10;0.82;;;0.22;;
38238;SDS011;24035;48.900;9.188;2023-11-19T09:44:39;0.57;;;0.22;;
38238;SDS011;24035;48.900;9.188;2023-11-19T09:47:11;1.88;;;0.20;;
38238;SDS011;24035;48.900;9.188;2023-11-19T09:49:39;0.75;;;0.25;;
38238;SDS011;24035;48.900;9.188;2023-11-19T09:52:05;0.57;;;0.10;;
38238;SDS011;24035;48.900;9.188;2023-11-19T09:54:31;1.08;;;0.30;;
38238;SDS011;24035;48.900;9.188;2023-11-19T09:56:57;1.08;;;0.20;;
38238;SDS011;24035;48.900;9.188;2023-11-19T09:59:29;0.32;;;0.10;;
38238;SDS011;24035;48.900;9.188;2023-11-19T10:01:56;0.45;;;0.13;;
38238;SDS011;24035;48.900;9.188;2023-11-19T10:04:22;4.63;;;0.65;;
38238;SDS011;24035;48.900;9.188;2023-11-19T10:06:51;0.55;;;0.20;;
38238;SDS011;24035;48.900;9.188;2023-11-19T10:09:17;0.50;;;0.00;;
38238;SDS011;24035;48.900;9.188;2023-11-19T10:11:44;0.00;;;0.00;;
38238;SDS011;24035;48.900;9.188;2023-11-19T10:14:10;0.90;;;0.10;;
38238;SDS011;24035;48.900;9.188;2023-11-19T10:16:36;0.82;;;0.15;;
38238;SDS011;24035;48.900;9.188;2023-11-19T10:19:03;0.40;;;0.15;;
38238;SDS011;24035;48.900;9.188;2023-11-19T10:21:29;0.88;;;0.22;;
38238;SDS011;24035;48.900;9.188;2023-11-19T10:23:59;1.30;;;0.30;;
38238;SDS011;24035;48.900;9.188;2023-11-19T10:26:25;0.60;;;0.15;;
38238;SDS011;24035;48.900;9.188;2023-11-19T10:28:52;1.35;;;0.10;;
38238;SDS011;24035;48.900;9.188;2023-11-19T10:31:19;0.52;;;0.10;;
38238;SDS011;24035;48.900;9.188;2023-11-19T10:36:17;0.43;;;0.10;;
38238;SDS011;24035;48.900;9.188;2023-11-19T10:38:51;0.55;;;0.13;;
38238;SDS011;24035;48.900;9.188;2023-11-19T10:41:30;0.30;;;0.20;;
38238;SDS011;24035;48.900;9.188;2023-11-19T10:43:57;0.55;;;0.15;;
38238;SDS011;24035;48.900;9.188;2023-11-19T10:46:23;2.70;;;0.60;;
38238;SDS011;24035;48.900;9.188;2023-11-19T10:49:02;0.82;;;0.20;;
38238;SDS011;24035;48.900;9.188;2023-11-19T10:51:27;0.52;;;0.10;;
38238;SDS011;24035;48.900;9.188;2023-11-19T10:53:54;2.92;;;1.02;;
38238;SDS011;24035;48.900;9.188;2023-11-19T10:56:31;1.98;;;0.43;;
38238;SDS011;24035;48.900;9.188;2023-11-19T10:58:58;0.82;;;0.10;;
38238;SDS011;24035;48.900;9.188;2023-11-19T11:01:33;0.80;;;0.10;;
38238;SDS011;24035;48.900;9.188;2023-11-19T11:04:05;1.38;;;0.30;;
38238;SDS011;24035;48.900;9.188;2023-11-19T11:06:38;0.50;;;0.13;;
38238;SDS011;24035;48.900;9.188;2023-11-19T11:09:05;1.10;;;0.28;;
38238;SDS011;24035;48.900;9.188;2023-11-19T11:11:32;0.10;;;0.10;;
38238;SDS011;24035;48.900;9.188;2023-11-19T11:13:58;2.47;;;0.30;;
38238;SDS011;24035;48.900;9.188;2023-11-19T11:16:27;0.28;;;0.10;;
38238;SDS011;24035;48.900;9.188;2023-11-19T11:18:54;2.03;;;0.20;;
38238;SDS011;24035;48.900;9.188;2023-11-19T11:21:21;0.22;;;0.10;;
38238;SDS011;24035;48.900;9.188;2023-11-19T11:29:26;2.25;;;0.40;;
38238;SDS011;24035;48.900;9.188;2023-11-19T11:34:53;0.50;;;0.10;;
38238;SDS011;24035;48.900;9.188;2023-11-19T11:37:37;0.65;;;0.10;;
38238;SDS011;24035;48.900;9.188;2023-11-19T11:40:14;0.47;;;0.30;;
38238;SDS011;24035;48.900;9.188;2023-11-19T11:42:41;1.00;;;0.20;;
38238;SDS011;24035;48.900;9.188;2023-11-19T11:45:07;0.63;;;0.20;;
38238;SDS011;24035;48.900;9.188;2023-11-19T11:55:33;0.45;;;0.30;;
38238;SDS011;24035;48.900;9.188;2023-11-19T11:58:00;0.20;;;0.10;;
38238;SDS011;24035;48.900;9.188;2023-11-19T12:03:01;1.90;;;0.40;;
38238;SDS011;24035;48.900;9.188;2023-11-19T12:05:29;2.13;;;0.50;;
38238;SDS011;24035;48.900;9.188;2023-11-19T12:08:02;7.13;;;0.30;;
38238;SDS011;24035;48.900;9.188;2023-11-19T12:10:29;0.60;;;0.20;;
38238;SDS011;24035;48.900;9.188;2023-11-19T12:13:00;1.05;;;0.20;;
38238;SDS011;24035;48.900;9.188;2023-11-19T12:15:26;0.38;;;0.20;;
38238;SDS011;24035;48.900;9.188;2023-11-19T12:17:53;1.25;;;0.25;;
38238;SDS011;24035;48.900;9.188;2023-11-19T12:20:20;2.25;;;0.10;;
38238;SDS011;24035;48.900;9.188;2023-11-19T12:22:48;0.47;;;0.20;;
38238;SDS011;24035;48.900;9.188;2023-11-19T12:25:15;4.28;;;0.40;;
38238;SDS011;24035;48.900;9.188;2023-11-19T12:27:43;1.75;;;0.40;;
38238;SDS011;24035;48.900;9.188;2023-11-19T12:30:10;2.78;;;0.32;;
38238;SDS011;24035;48.900;9.188;2023-11-19T12:32:40;1.27;;;0.28;;
38238;SDS011;24035;48.900;9.188;2023-11-19T12:35:07;2.28;;;0.45;;
38238;SDS011;24035;48.900;9.188;2023-11-19T12:37:40;1.10;;;0.50;;
38238;SDS011;24035;48.900;9.188;2023-11-19T12:40:19;1.58;;;0.30;;
38238;SDS011;24035;48.900;9.188;2023-11-19T12:42:50;1.40;;;0.47;;
38238;SDS011;24035;48.900;9.188;2023-11-19T12:45:19;2.03;;;0.70;;
38238;SDS011;24035;48.900;9.188;2023-11-19T12:47:47;1.63;;;0.40;;
38238;SDS011;24035;48.900;9.188;2023-11-19T12:50:14;1.30;;;0.20;;
38238;SDS011;24035;48.900;9.188;2023-11-19T12:52:42;1.52;;;0.38;;
38238;SDS011;24035;48.900;9.188;2023-11-19T12:55:27;0.70;;;0.20;;
38238;SDS011;24035;48.900;9.188;2023-11-19T12:57:54;3.53;;;0.20;;
38238;SDS011;24035;48.900;9.188;2023-11-19T13:00:21;2.63;;;0.20;;
38238;SDS011;24035;48.900;9.188;2023-11-19T13:02:49;2.17;;;0.38;;
38238;SDS011;24035;48.900;9.188;2023-11-19T13:05:33;1.55;;;0.32;;
38238;SDS011;24035;48.900;9.188;2023-11-19T13:08:03;0.82;;;0.20;;
38238;SDS011;24035;48.900;9.188;2023-11-19T13:10:30;0.65;;;0.15;;
38238;SDS011;24035;48.900;9.188;2023-11-19T13:13:15;1.02;;;0.20;;
38238;SDS011;24035;48.900;9.188;2023-11-19T13:15:47;1.75;;;0.10;;
38238;SDS011;24035;48.900;9.188;2023-11-19T13:18:16;0.17;;;0.00;;
38238;SDS011;24035;48.900;9.188;2023-11-19T13:20:42;0.60;;;0.15;;
38238;SDS011;24035;48.900;9.188;2023-11-19T13:23:09;0.45;;;0.10;;
38238;SDS011;24035;48.900;9.188;2023-11-19T13:25:40;1.13;;;0.30;;
38238;SDS011;24035;48.900;9.188;2023-11-19T13:28:06;0.40;;;0.10;;
38238;SDS011;24035;48.900;9.188;2023-11-19T13:30:31;0.10;;;0.10;;
38238;SDS011;24035;48.900;9.188;2023-11-19T13:32:58;0.85;;;0.20;;
38238;SDS011;24035;48.900;9.188;2023-11-19T13:35:26;0.35;;;0.10;;
38238;SDS011;24035;48.900;9.188;2023-11-19T13:37:54;0.80;;;0.20;;
38238;SDS011;24035;48.900;9.188;2023-11-19T13:40:20;0.47;;;0.10;;
38238;SDS011;24035;48.900;9.188;2023-11-19T13:42:47;1.45;;;0.38;;
38238;SDS011;24035;48.900;9.188;2023-11-19T13:45:13;2.58;;;0.30;;
38238;SDS011;24035;48.900;9.188;2023-11-19T13:47:41;0.52;;;0.10;;
38238;SDS011;24035;48.900;9.188;2023-11-19T13:50:08;0.05;;;0.00;;
38238;SDS011;24035;48.900;9.188;2023-11-19T13:52:38;0.90;;;0.13;;
38238;SDS011;24035;48.900;9.188;2023-11-19T13:55:06;0.60;;;0.10;;
38238;SDS011;24035;48.900;9.188;2023-11-19T13:57:37;1.05;;;0.20;;
38238;SDS011;24035;48.900;9.188;2023-11-19T14:00:04;0.30;;;0.10;;
38238;SDS011;24035;48.900;9.188;2023-11-19T14:02:44;1.67;;;0.60;;
38238;SDS011;24035;48.900;9.188;2023-11-19T14:05:12;0.32;;;0.20;;
38238;SDS011;24035;48.900;9.188;2023-11-19T14:07:39;1.00;;;0.20;;
38238;SDS011;24035;48.900;9.188;2023-11-19T14:10:06;2.75;;;0.45;;
38238;SDS011;24035;48.900;9.188;2023-11-19T14:12:34;1.08;;;0.28;;
38238;SDS011;24035;48.900;9.188;2023-11-19T14:15:02;0.80;;;0.20;;
38238;SDS011;24035;48.900;9.188;2023-11-19T14:17:31;0.98;;;0.30;;
38238;SDS011;24035;48.900;9.188;2023-11-19T14:19:57;0.32;;;0.15;;
38238;SDS011;24035;48.900;9.188;2023-11-19T14:22:22;0.82;;;0.20;;
38238;SDS011;24035;48.900;9.188;2023-11-19T14:24:50;1.63;;;0.40;;
38238;SDS011;24035;48.900;9.188;2023-11-19T14:27:16;1.33;;;0.40;;
38238;SDS011;24035;48.900;9.188;2023-11-19T14:29:44;0.47;;;0.13;;
38238;SDS011;24035;48.900;9.188;2023-11-19T14:32:10;0.20;;;0.10;;
38238;SDS011;24035;48.900;9.188;2023-11-19T14:34:36;0.73;;;0.30;;
38238;SDS011;24035;48.900;9.188;2023-11-19T14:37:02;1.15;;;0.28;;
38238;SDS011;24035;48.900;9.188;2023-11-19T14:39:28;0.93;;;0.20;;
38238;SDS011;24035;48.900;9.188;2023-11-19T14:41:59;2.20;;;0.20;;
38238;SDS011;24035;48.900;9.188;2023-11-19T14:44:29;1.10;;;0.43;;
38238;SDS011;24035;48.900;9.188;2023-11-19T14:46:55;1.45;;;0.55;;
38238;SDS011;24035;48.900;9.188;2023-11-19T14:49:21;0.95;;;0.17;;
38238;SDS011;24035;48.900;9.188;2023-11-19T14:51:49;0.25;;;0.10;;
38238;SDS011;24035;48.900;9.188;2023-11-19T14:54:15;0.13;;;0.10;;
38238;SDS011;24035;48.900;9.188;2023-11-19T14:56:41;1.27;;;0.13;;
38238;SDS011;24035;48.900;9.188;2023-11-19T14:59:07;0.70;;;0.20;;
38238;SDS011;24035;48.900;9.188;2023-11-19T15:01:33;0.47;;;0.28;;
38238;SDS011;24035;48.900;9.188;2023-11-19T15:03:59;3.28;;;0.20;;
38238;SDS011;24035;48.900;9.188;2023-11-19T15:06:25;0.90;;;0.20;;
38238;SDS011;24035;48.900;9.188;2023-11-19T15:08:53;0.45;;;0.15;;
38238;SDS011;24035;48.900;9.188;2023-11-19T15:11:20;0.63;;;0.17;;
38238;SDS011;24035;48.900;9.188;2023-11-19T15:13:46;3.17;;;0.50;;
38238;SDS011;24035;48.900;9.188;2023-11-19T15:16:12;0.60;;;0.20;;